AAR352 ZYYJ-RKSI
Flight info
| Callsign | AAR352 |
|---|---|
| Flight time | N/A |
| Altitude | 34100 |
| Route | KAN09D KANVU G341 LJB A588 CHI W107 SANKO/K0852S1070 A326 DONVO G597 AGAVO/N0456F350 Y644 REBIT REBIT1Y |
| Aircraft | A321/M-SDE3FGHIRWY/LB1 |
Departure
| Time | N/A |
|---|---|
| Airport | Yanji Chaoyangchuan Airport (ZYYJ) |
Arrival
| Time | 2026-05-07 14:00 |
|---|---|
| Airport | Incheon International Airport (RKSI) |
| Time | Latitude | Longitude | Altitude | Speed | Heading |
|---|---|---|---|---|---|
| 2026-05-07 12:42 | 42.88968 | 125.22872 | 34088 ft | 439 kts | 211° |
| 2026-05-07 12:42 | 42.86273 | 125.21006 | 34088 ft | 440 kts | 211° |
| 2026-05-07 12:42 | 42.80818 | 125.17217 | 34088 ft | 440 kts | 211° |
| 2026-05-07 12:43 | 42.75378 | 125.13393 | 34085 ft | 439 kts | 212° |
| 2026-05-07 12:43 | 42.69948 | 125.09571 | 34093 ft | 440 kts | 212° |
| 2026-05-07 12:44 | 42.64509 | 125.05760 | 34091 ft | 440 kts | 212° |
| 2026-05-07 12:44 | 42.59067 | 125.01953 | 34091 ft | 440 kts | 212° |
| 2026-05-07 12:45 | 42.53611 | 124.98153 | 34091 ft | 440 kts | 212° |
| 2026-05-07 12:45 | 42.48164 | 124.94361 | 34088 ft | 440 kts | 212° |
| 2026-05-07 12:46 | 42.42711 | 124.90577 | 34094 ft | 440 kts | 212° |
| 2026-05-07 12:46 | 42.37256 | 124.86800 | 34096 ft | 440 kts | 212° |
| 2026-05-07 12:47 | 42.31799 | 124.83024 | 34099 ft | 440 kts | 212° |
| 2026-05-07 12:47 | 42.26336 | 124.79247 | 34087 ft | 442 kts | 212° |
| 2026-05-07 12:48 | 42.20876 | 124.75477 | 34066 ft | 446 kts | 212° |
| 2026-05-07 12:48 | 42.15324 | 124.71662 | 34068 ft | 448 kts | 212° |
| 2026-05-07 12:49 | 42.09740 | 124.67834 | 34070 ft | 450 kts | 212° |
| 2026-05-07 12:49 | 42.04147 | 124.64003 | 34076 ft | 451 kts | 212° |
| 2026-05-07 12:50 | 41.99486 | 124.60818 | 34087 ft | 452 kts | 212° |
| 2026-05-07 12:50 | 41.93929 | 124.56862 | 34103 ft | 451 kts | 214° |
| 2026-05-07 12:51 | 41.88507 | 124.52656 | 34100 ft | 450 kts | 215° |
| 2026-05-07 12:51 | 41.83085 | 124.48407 | 34109 ft | 451 kts | 215° |
| 2026-05-07 12:52 | 41.77642 | 124.44229 | 34113 ft | 451 kts | 214° |
| 2026-05-07 12:52 | 41.72175 | 124.40095 | 34112 ft | 451 kts | 214° |
| 2026-05-07 12:53 | 41.66728 | 124.35987 | 34120 ft | 451 kts | 214° |
| 2026-05-07 12:53 | 41.61255 | 124.31853 | 34124 ft | 451 kts | 214° |
| 2026-05-07 12:54 | 41.55791 | 124.27723 | 34120 ft | 451 kts | 215° |
| 2026-05-07 12:54 | 41.50334 | 124.23606 | 34128 ft | 451 kts | 215° |
| 2026-05-07 12:55 | 41.44895 | 124.19514 | 34126 ft | 451 kts | 215° |
| 2026-05-07 12:55 | 41.39428 | 124.15423 | 34123 ft | 450 kts | 214° |
| 2026-05-07 12:56 | 41.33926 | 124.11404 | 34131 ft | 451 kts | 214° |
| 2026-05-07 12:56 | 41.28399 | 124.07432 | 34131 ft | 451 kts | 214° |
| 2026-05-07 12:57 | 41.22880 | 124.03467 | 34128 ft | 450 kts | 214° |
| 2026-05-07 12:57 | 41.17374 | 123.99493 | 34134 ft | 450 kts | 214° |
| 2026-05-07 12:58 | 41.11901 | 123.95540 | 34123 ft | 450 kts | 214° |
| 2026-05-07 12:58 | 41.06402 | 123.91592 | 34125 ft | 450 kts | 214° |
| 2026-05-07 12:59 | 41.00883 | 123.87625 | 34123 ft | 450 kts | 214° |
| 2026-05-07 12:59 | 40.95371 | 123.83678 | 34126 ft | 450 kts | 214° |
| 2026-05-07 13:00 | 40.91065 | 123.80605 | 34123 ft | 450 kts | 214° |
| 2026-05-07 13:00 | 40.85553 | 123.76674 | 34133 ft | 450 kts | 214° |
| 2026-05-07 13:01 | 40.80055 | 123.72735 | 34131 ft | 449 kts | 215° |
| 2026-05-07 13:01 | 40.74603 | 123.68712 | 34132 ft | 448 kts | 216° |
| 2026-05-07 13:02 | 40.69156 | 123.64665 | 34130 ft | 448 kts | 216° |
| 2026-05-07 13:02 | 40.63741 | 123.60683 | 34134 ft | 448 kts | 216° |
| 2026-05-07 13:03 | 40.58283 | 123.56699 | 34141 ft | 448 kts | 216° |
| 2026-05-07 13:03 | 40.52830 | 123.52728 | 34136 ft | 447 kts | 216° |
| 2026-05-07 13:04 | 40.47419 | 123.48783 | 34134 ft | 447 kts | 216° |
| 2026-05-07 13:04 | 40.41969 | 123.44805 | 34131 ft | 447 kts | 216° |
| 2026-05-07 13:05 | 40.36527 | 123.40844 | 34133 ft | 446 kts | 216° |
| 2026-05-07 13:05 | 40.31089 | 123.36904 | 34134 ft | 446 kts | 216° |
| 2026-05-07 13:06 | 40.25647 | 123.32964 | 34137 ft | 446 kts | 216° |
| 2026-05-07 13:06 | 40.20242 | 123.29061 | 34144 ft | 446 kts | 216° |
| 2026-05-07 13:07 | 40.14808 | 123.25136 | 34147 ft | 446 kts | 216° |
| 2026-05-07 13:07 | 40.09380 | 123.21225 | 34155 ft | 445 kts | 216° |
| 2026-05-07 13:08 | 40.03946 | 123.17321 | 34148 ft | 445 kts | 216° |
| 2026-05-07 13:08 | 39.98540 | 123.13405 | 34146 ft | 444 kts | 217° |
| 2026-05-07 13:09 | 39.93155 | 123.09468 | 34149 ft | 443 kts | 217° |
| 2026-05-07 13:09 | 39.87767 | 123.05538 | 34143 ft | 443 kts | 217° |
| 2026-05-07 13:10 | 39.82372 | 123.01625 | 34150 ft | 442 kts | 217° |
| 2026-05-07 13:10 | 39.76999 | 122.97740 | 34147 ft | 442 kts | 217° |
| 2026-05-07 13:11 | 39.71652 | 122.93876 | 34154 ft | 442 kts | 217° |
| 2026-05-07 13:11 | 39.67176 | 122.90655 | 34156 ft | 441 kts | 217° |
| 2026-05-07 13:12 | 39.61806 | 122.86792 | 34159 ft | 441 kts | 217° |
| 2026-05-07 13:12 | 39.56435 | 122.82931 | 34158 ft | 441 kts | 217° |
| 2026-05-07 13:13 | 39.51067 | 122.79082 | 34165 ft | 441 kts | 217° |
| 2026-05-07 13:13 | 39.45704 | 122.75242 | 34162 ft | 440 kts | 217° |
| 2026-05-07 13:14 | 39.40382 | 122.71437 | 34173 ft | 439 kts | 217° |
| 2026-05-07 13:14 | 39.35033 | 122.67624 | 34171 ft | 439 kts | 217° |
| 2026-05-07 13:15 | 39.29690 | 122.63822 | 34174 ft | 439 kts | 217° |
| 2026-05-07 13:15 | 39.23838 | 122.61200 | 34169 ft | 462 kts | 198° |
| 2026-05-07 13:16 | 39.17678 | 122.60112 | 34172 ft | 465 kts | 197° |
| 2026-05-07 13:16 | 39.11254 | 122.59123 | 34171 ft | 464 kts | 197° |
| 2026-05-07 13:17 | 39.04848 | 122.58138 | 34173 ft | 463 kts | 197° |
| 2026-05-07 13:17 | 38.98492 | 122.57112 | 34181 ft | 462 kts | 197° |
| 2026-05-07 13:18 | 38.92119 | 122.56063 | 34177 ft | 461 kts | 197° |
| 2026-05-07 13:18 | 38.85752 | 122.55031 | 34182 ft | 460 kts | 197° |
| 2026-05-07 13:19 | 38.79397 | 122.54014 | 34182 ft | 460 kts | 198° |
| 2026-05-07 13:19 | 38.73036 | 122.53003 | 34184 ft | 459 kts | 198° |
| 2026-05-07 13:20 | 38.66738 | 122.51995 | 34190 ft | 458 kts | 198° |
| 2026-05-07 13:20 | 38.60421 | 122.50971 | 34192 ft | 456 kts | 198° |
| 2026-05-07 13:21 | 38.54132 | 122.49960 | 34196 ft | 455 kts | 198° |
| 2026-05-07 13:21 | 38.47843 | 122.48962 | 34198 ft | 454 kts | 198° |
| 2026-05-07 13:22 | 38.41570 | 122.47971 | 34198 ft | 453 kts | 199° |
| 2026-05-07 13:22 | 38.35313 | 122.46977 | 34194 ft | 453 kts | 199° |
| 2026-05-07 13:23 | 38.30688 | 122.46452 | 34196 ft | 465 kts | 190° |
| 2026-05-07 13:23 | 38.28211 | 122.46735 | 34190 ft | 480 kts | 181° |
| 2026-05-07 13:23 | 38.24923 | 122.47903 | 34188 ft | 501 kts | 169° |
| 2026-05-07 13:24 | 38.21788 | 122.50026 | 34187 ft | 522 kts | 155° |
| 2026-05-07 13:24 | 38.18977 | 122.53075 | 34178 ft | 539 kts | 143° |
| 2026-05-07 13:24 | 38.13704 | 122.59903 | 34161 ft | 541 kts | 144° |
| 2026-05-07 13:25 | 38.08409 | 122.66718 | 34157 ft | 542 kts | 144° |
| 2026-05-07 13:25 | 38.03110 | 122.73559 | 34156 ft | 543 kts | 145° |
| 2026-05-07 13:26 | 37.97824 | 122.80436 | 34155 ft | 545 kts | 145° |
| 2026-05-07 13:26 | 37.92563 | 122.87276 | 34150 ft | 546 kts | 146° |
| 2026-05-07 13:27 | 37.87243 | 122.94156 | 34143 ft | 546 kts | 146° |
| 2026-05-07 13:27 | 37.81908 | 123.01014 | 34138 ft | 547 kts | 147° |
| 2026-05-07 13:28 | 37.76598 | 123.07839 | 34141 ft | 548 kts | 147° |
| 2026-05-07 13:28 | 37.71240 | 123.14712 | 34141 ft | 549 kts | 147° |
| 2026-05-07 13:29 | 37.65870 | 123.21586 | 34143 ft | 550 kts | 147° |
| 2026-05-07 13:29 | 37.60488 | 123.28461 | 34147 ft | 550 kts | 147° |
| 2026-05-07 13:30 | 37.55297 | 123.35619 | 34127 ft | 559 kts | 138° |
| 2026-05-07 13:30 | 37.53006 | 123.39508 | 34008 ft | 549 kts | 138° |
| 2026-05-07 13:30 | 37.50736 | 123.43358 | 33860 ft | 545 kts | 139° |
| 2026-05-07 13:31 | 37.48471 | 123.47167 | 33709 ft | 543 kts | 139° |
| 2026-05-07 13:31 | 37.46200 | 123.50965 | 33564 ft | 542 kts | 139° |
| 2026-05-07 13:31 | 37.44698 | 123.53468 | 33435 ft | 541 kts | 139° |
| 2026-05-07 13:31 | 37.41660 | 123.58517 | 33177 ft | 540 kts | 139° |
| 2026-05-07 13:32 | 37.39394 | 123.62284 | 32985 ft | 540 kts | 139° |
| 2026-05-07 13:32 | 37.37896 | 123.64778 | 32858 ft | 539 kts | 139° |
| 2026-05-07 13:32 | 37.35636 | 123.68540 | 32675 ft | 539 kts | 139° |
| 2026-05-07 13:32 | 37.33377 | 123.72296 | 32491 ft | 538 kts | 139° |
| 2026-05-07 13:33 | 37.31124 | 123.76042 | 32306 ft | 537 kts | 139° |
| 2026-05-07 13:33 | 37.28872 | 123.79782 | 32122 ft | 537 kts | 139° |
| 2026-05-07 13:33 | 37.26620 | 123.83526 | 31949 ft | 536 kts | 139° |
| 2026-05-07 13:33 | 37.24373 | 123.87260 | 31755 ft | 536 kts | 139° |
| 2026-05-07 13:34 | 37.22151 | 123.91018 | 31590 ft | 539 kts | 135° |
| 2026-05-07 13:34 | 37.18671 | 123.99545 | 31237 ft | 562 kts | 116° |
| 2026-05-07 13:34 | 37.17641 | 124.04306 | 31061 ft | 570 kts | 106° |
| 2026-05-07 13:35 | 37.17160 | 124.09165 | 30885 ft | 576 kts | 96° |
| 2026-05-07 13:35 | 37.17182 | 124.14038 | 30377 ft | 580 kts | 89° |
| 2026-05-07 13:35 | 37.17382 | 124.19088 | 29879 ft | 579 kts | 90° |
| 2026-05-07 13:35 | 37.17579 | 124.24129 | 29329 ft | 578 kts | 90° |
| 2026-05-07 13:36 | 37.17756 | 124.29095 | 28801 ft | 577 kts | 90° |
| 2026-05-07 13:36 | 37.17898 | 124.34184 | 28266 ft | 576 kts | 91° |
| 2026-05-07 13:36 | 37.18007 | 124.39196 | 27751 ft | 575 kts | 91° |
| 2026-05-07 13:36 | 37.18104 | 124.44213 | 27236 ft | 574 kts | 91° |
| 2026-05-07 13:37 | 37.18201 | 124.49207 | 26741 ft | 573 kts | 91° |
| 2026-05-07 13:37 | 37.18301 | 124.54143 | 26271 ft | 573 kts | 91° |
| 2026-05-07 13:37 | 37.18407 | 124.59133 | 25775 ft | 572 kts | 91° |
| 2026-05-07 13:37 | 37.18518 | 124.64113 | 25305 ft | 572 kts | 91° |
| 2026-05-07 13:38 | 37.18631 | 124.69120 | 24838 ft | 576 kts | 91° |
| 2026-05-07 13:38 | 37.18745 | 124.74150 | 24381 ft | 577 kts | 91° |
| 2026-05-07 13:38 | 37.18856 | 124.79171 | 23929 ft | 576 kts | 91° |
| 2026-05-07 13:38 | 37.18963 | 124.84192 | 23388 ft | 576 kts | 91° |
| 2026-05-07 13:39 | 37.19067 | 124.89197 | 22665 ft | 570 kts | 90° |
| 2026-05-07 13:39 | 37.19166 | 124.94132 | 21959 ft | 563 kts | 90° |
| 2026-05-07 13:39 | 37.19264 | 124.99018 | 21269 ft | 556 kts | 90° |
| 2026-05-07 13:39 | 37.19358 | 125.03834 | 20591 ft | 547 kts | 90° |
| 2026-05-07 13:40 | 37.19445 | 125.08577 | 19930 ft | 539 kts | 90° |
| 2026-05-07 13:40 | 37.19527 | 125.13215 | 19273 ft | 522 kts | 91° |
| 2026-05-07 13:40 | 37.19603 | 125.17677 | 18681 ft | 497 kts | 91° |
| 2026-05-07 13:40 | 37.19676 | 125.21885 | 18080 ft | 471 kts | 91° |
| 2026-05-07 13:41 | 37.19745 | 125.25860 | 17419 ft | 451 kts | 90° |
| 2026-05-07 13:41 | 37.19807 | 125.29747 | 16766 ft | 442 kts | 90° |
| 2026-05-07 13:41 | 37.19864 | 125.33576 | 16126 ft | 434 kts | 90° |
| 2026-05-07 13:41 | 37.19918 | 125.37287 | 15498 ft | 419 kts | 90° |
| 2026-05-07 13:42 | 37.19971 | 125.40919 | 14877 ft | 411 kts | 90° |
| 2026-05-07 13:42 | 37.19988 | 125.44471 | 14276 ft | 404 kts | 93° |
| 2026-05-07 13:42 | 37.19747 | 125.47947 | 13667 ft | 397 kts | 99° |
| 2026-05-07 13:42 | 37.19225 | 125.51313 | 13006 ft | 390 kts | 106° |
| 2026-05-07 13:43 | 37.18439 | 125.54532 | 12357 ft | 378 kts | 111° |
| 2026-05-07 13:43 | 37.17579 | 125.57537 | 12046 ft | 356 kts | 111° |
| 2026-05-07 13:43 | 37.16801 | 125.60481 | 11908 ft | 354 kts | 105° |
| 2026-05-07 13:43 | 37.16297 | 125.63498 | 11595 ft | 351 kts | 101° |
| 2026-05-07 13:44 | 37.16050 | 125.66517 | 11271 ft | 346 kts | 92° |
| 2026-05-07 13:44 | 37.15972 | 125.69516 | 11016 ft | 343 kts | 91° |
| 2026-05-07 13:44 | 37.15908 | 125.72509 | 11016 ft | 344 kts | 91° |
| 2026-05-07 13:44 | 37.15845 | 125.75500 | 11016 ft | 344 kts | 91° |
| 2026-05-07 13:45 | 37.15783 | 125.78503 | 11015 ft | 344 kts | 91° |
| 2026-05-07 13:45 | 37.15725 | 125.81464 | 11023 ft | 345 kts | 91° |
| 2026-05-07 13:45 | 37.15670 | 125.84504 | 11017 ft | 344 kts | 91° |
| 2026-05-07 13:45 | 37.15618 | 125.87447 | 11012 ft | 340 kts | 91° |
| 2026-05-07 13:46 | 37.15565 | 125.90411 | 11012 ft | 339 kts | 91° |
| 2026-05-07 13:46 | 37.15513 | 125.93368 | 11017 ft | 338 kts | 91° |
| 2026-05-07 13:46 | 37.15465 | 125.96264 | 10814 ft | 328 kts | 91° |
| 2026-05-07 13:46 | 37.15418 | 125.99102 | 10448 ft | 323 kts | 91° |
| 2026-05-07 13:47 | 37.15367 | 126.01904 | 10053 ft | 320 kts | 91° |
| 2026-05-07 13:47 | 37.15314 | 126.04674 | 9649 ft | 316 kts | 91° |
| 2026-05-07 13:47 | 37.15256 | 126.07416 | 9213 ft | 313 kts | 91° |
| 2026-05-07 13:47 | 37.15194 | 126.10131 | 8699 ft | 310 kts | 91° |
| 2026-05-07 13:48 | 37.15126 | 126.12815 | 8210 ft | 306 kts | 91° |
| 2026-05-07 13:48 | 37.15054 | 126.15466 | 7735 ft | 302 kts | 91° |
| 2026-05-07 13:48 | 37.14977 | 126.18088 | 7263 ft | 299 kts | 91° |
| 2026-05-07 13:48 | 37.14897 | 126.20670 | 6797 ft | 295 kts | 90° |
| 2026-05-07 13:49 | 37.14995 | 126.23221 | 6325 ft | 291 kts | 82° |
| 2026-05-07 13:49 | 37.15219 | 126.25733 | 5959 ft | 289 kts | 81° |
| 2026-05-07 13:49 | 37.15453 | 126.28219 | 5635 ft | 286 kts | 81° |
| 2026-05-07 13:49 | 37.15682 | 126.30659 | 5314 ft | 284 kts | 81° |
| 2026-05-07 13:50 | 37.15914 | 126.33148 | 4974 ft | 283 kts | 81° |
| 2026-05-07 13:50 | 37.16134 | 126.35546 | 4634 ft | 276 kts | 81° |
| 2026-05-07 13:50 | 37.16348 | 126.37905 | 4278 ft | 269 kts | 81° |
| 2026-05-07 13:50 | 37.16549 | 126.40218 | 3893 ft | 266 kts | 81° |
| 2026-05-07 13:51 | 37.16740 | 126.42545 | 3510 ft | 264 kts | 81° |
| 2026-05-07 13:51 | 37.16919 | 126.44797 | 3123 ft | 262 kts | 81° |
| 2026-05-07 13:51 | 37.17153 | 126.47025 | 2983 ft | 256 kts | 68° |
| 2026-05-07 13:51 | 37.17908 | 126.48967 | 2848 ft | 243 kts | 53° |
| 2026-05-07 13:52 | 37.18213 | 126.49570 | 2792 ft | 240 kts | 52° |
| 2026-05-07 13:52 | 37.18502 | 126.50126 | 2698 ft | 237 kts | 54° |
| 2026-05-07 13:52 | 37.19411 | 126.51839 | 2324 ft | 235 kts | 51° |
| 2026-05-07 13:52 | 37.20317 | 126.53532 | 2020 ft | 232 kts | 51° |
| 2026-05-07 13:53 | 37.21218 | 126.55204 | 1716 ft | 231 kts | 51° |
| 2026-05-07 13:53 | 37.22114 | 126.56858 | 1584 ft | 228 kts | 51° |
| 2026-05-07 13:53 | 37.23020 | 126.58503 | 1597 ft | 230 kts | 51° |
| 2026-05-07 13:53 | 37.24107 | 126.59887 | 1595 ft | 213 kts | 23° |
| 2026-05-07 13:54 | 37.25440 | 126.60344 | 1602 ft | 190 kts | 358° |
| 2026-05-07 13:54 | 37.26594 | 126.59793 | 1598 ft | 179 kts | 314° |
| 2026-05-07 13:54 | 37.27402 | 126.58613 | 1586 ft | 178 kts | 320° |
| 2026-05-07 13:54 | 37.28414 | 126.57719 | 1608 ft | 177 kts | 325° |
| 2026-05-07 13:55 | 37.29419 | 126.56831 | 1619 ft | 174 kts | 324° |
| 2026-05-07 13:55 | 37.30391 | 126.55971 | 1623 ft | 169 kts | 324° |
| 2026-05-07 13:55 | 37.31327 | 126.55142 | 1595 ft | 159 kts | 324° |
| 2026-05-07 13:55 | 37.32231 | 126.54342 | 1604 ft | 157 kts | 325° |
| 2026-05-07 13:56 | 37.33109 | 126.53564 | 1603 ft | 156 kts | 324° |
| 2026-05-07 13:56 | 37.33990 | 126.52784 | 1606 ft | 154 kts | 324° |
| 2026-05-07 13:56 | 37.34870 | 126.52005 | 1606 ft | 155 kts | 324° |
| 2026-05-07 13:56 | 37.35754 | 126.51221 | 1599 ft | 155 kts | 325° |
| 2026-05-07 13:57 | 37.36612 | 126.50461 | 1628 ft | 148 kts | 324° |
| 2026-05-07 13:57 | 37.37443 | 126.49724 | 1583 ft | 144 kts | 324° |
| 2026-05-07 13:57 | 37.38251 | 126.49007 | 1469 ft | 141 kts | 324° |
| 2026-05-07 13:57 | 37.39046 | 126.48302 | 1313 ft | 140 kts | 324° |
| 2026-05-07 13:58 | 37.39846 | 126.47592 | 1127 ft | 141 kts | 324° |
| 2026-05-07 13:58 | 37.40648 | 126.46880 | 930 ft | 141 kts | 324° |
| 2026-05-07 13:58 | 37.41399 | 126.46213 | 739 ft | 143 kts | 322° |
| 2026-05-07 13:58 | 37.42136 | 126.45559 | 567 ft | 144 kts | 322° |
| 2026-05-07 13:59 | 37.42759 | 126.45008 | 399 ft | 146 kts | 323° |
| 2026-05-07 13:59 | 37.43499 | 126.44367 | 258 ft | 145 kts | 321° |
| 2026-05-07 13:59 | 37.43832 | 126.44057 | 172 ft | 145 kts | 321° |
| 2026-05-07 13:59 | 37.44575 | 126.43399 | 48 ft | 134 kts | 322° |
| 2026-05-07 14:00 | 37.45238 | 126.42792 | 35 ft | 99 kts | 326° |
| 2026-05-07 14:00 | 37.45666 | 126.42422 | 33 ft | 50 kts | 324° |
| 2026-05-07 14:00 | 37.45927 | 126.42255 | 33 ft | 33 kts | 344° |
| 2026-05-07 14:00 | 37.46089 | 126.42235 | 33 ft | 12 kts | 350° |
| 2026-05-07 14:01 | 37.46175 | 126.42215 | 33 ft | 13 kts | 344° |
| 2026-05-07 14:01 | 37.46256 | 126.42163 | 33 ft | 13 kts | 323° |
| 2026-05-07 14:01 | 37.46341 | 126.42086 | 32 ft | 16 kts | 328° |
| 2026-05-07 14:01 | 37.46433 | 126.42005 | 33 ft | 16 kts | 327° |
| 2026-05-07 14:02 | 37.46525 | 126.42017 | 33 ft | 14 kts | 64° |
| 2026-05-07 14:02 | 37.46584 | 126.42118 | 33 ft | 16 kts | 54° |
| 2026-05-07 14:02 | 37.46648 | 126.42232 | 33 ft | 10 kts | 53° |
| 2026-05-07 14:02 | 37.46665 | 126.42262 | 33 ft | 0 kts | 54° |
| 2026-05-07 14:03 | 37.46681 | 126.42296 | 33 ft | 14 kts | 70° |
| 2026-05-07 14:04 | 37.46671 | 126.42366 | 32 ft | 8 kts | 127° |
| 2026-05-07 14:04 | 37.46622 | 126.42409 | 33 ft | 10 kts | 148° |
| 2026-05-07 14:04 | 37.46562 | 126.42461 | 33 ft | 11 kts | 145° |
| 2026-05-07 14:04 | 37.46497 | 126.42519 | 32 ft | 12 kts | 143° |
| 2026-05-07 14:05 | 37.46427 | 126.42584 | 33 ft | 13 kts | 144° |
| 2026-05-07 14:05 | 37.46345 | 126.42658 | 33 ft | 19 kts | 145° |
| 2026-05-07 14:05 | 37.46199 | 126.42786 | 33 ft | 28 kts | 144° |
| 2026-05-07 14:05 | 37.46041 | 126.42928 | 33 ft | 28 kts | 145° |
| 2026-05-07 14:06 | 37.45916 | 126.43039 | 33 ft | 22 kts | 144° |
| 2026-05-07 14:06 | 37.45811 | 126.43148 | 33 ft | 14 kts | 117° |
| 2026-05-07 14:06 | 37.45842 | 126.43242 | 33 ft | 12 kts | 59° |
| 2026-05-07 14:06 | 37.45896 | 126.43343 | 33 ft | 13 kts | 54° |
| 2026-05-07 14:07 | 37.45911 | 126.43368 | 33 ft | 1 kts | 54° |
| 2026-05-07 14:07 | 37.45931 | 126.43405 | 33 ft | 22 kts | 54° |
| 2026-05-07 14:07 | 37.46046 | 126.43607 | 31 ft | 26 kts | 54° |
| 2026-05-07 14:07 | 37.46136 | 126.43767 | 33 ft | 20 kts | 54° |
| 2026-05-07 14:08 | 37.46217 | 126.43911 | 33 ft | 21 kts | 54° |
| 2026-05-07 14:08 | 37.46296 | 126.44050 | 33 ft | 14 kts | 54° |
| 2026-05-07 14:08 | 37.46343 | 126.44083 | 33 ft | 12 kts | 5° |
| 2026-05-07 14:08 | 37.46437 | 126.44018 | 31 ft | 13 kts | 325° |
| 2026-05-07 14:09 | 37.46513 | 126.43949 | 33 ft | 14 kts | 324° |
| 2026-05-07 14:09 | 37.46597 | 126.43874 | 31 ft | 15 kts | 324° |
| 2026-05-07 14:09 | 37.46656 | 126.43833 | 33 ft | 7 kts | 15° |
| 2026-05-07 14:09 | 37.46704 | 126.43860 | 33 ft | 8 kts | 31° |
| 2026-05-07 14:10 | 37.46735 | 126.43883 | 33 ft | 0 kts | 30° |
| 2026-05-07 14:10 | 37.46737 | 126.43884 | 31 ft | 0 kts | 30° |